HomeShort term forecast

Short term forecast

Graphical weather forecast for the next 48 hours for Montreal:
Short term forecast
This weather forecast is automatically refreshed every 3 hours.

Hourly Experimental Forecast for the next 48 hours

Overall summary: Foggy this evening.

 Date & Hour   Temp   Feel   Baro   Hum   Speed & Bearing   Precipitation   Visibility   Cloud cover   Conditions 
 17/01/2018 - 09:00  -10.9°C  -10.9°C  1028.5 hPa  88%  3.9 km/h   0.02 mm/h  6.3km  94%  Overcast 
 17/01/2018 - 10:00  -10.5°C  -10.5°C  1028.1 hPa  86%  4.3 km/h   0.01 mm/h  4.4km  98%  Overcast 
 17/01/2018 - 11:00  -9.6°C  -12.5°C  1027.0 hPa  83%  5.1 km/h   --  3.4km  98%  Overcast 
 17/01/2018 - 12:00  -8.2°C  -11.6°C  1025.7 hPa  80%  6.2 km/h   0.01 mm/h  3.5km  97%  Overcast 
 17/01/2018 - 13:00  -7.1°C  -10.7°C  1024.5 hPa  77%  7.2 km/h   0.01 mm/h  4.1km  94%  Overcast 
 17/01/2018 - 14:00  -6.3°C  -10.1°C  1023.6 hPa  76%  7.9 km/h   0.01 mm/h  5.9km  80%  Mostly Cloudy 
 17/01/2018 - 15:00  -5.8°C  -9.8°C  1022.9 hPa  74%  8.6 km/h   --  8.1km  61%  Mostly Cloudy 
 17/01/2018 - 16:00  -5.8°C  -10.2°C  1022.2 hPa  75%  9.7 km/h   --  8.8km  51%  Partly Cloudy 
 17/01/2018 - 17:00  -6.7°C  -11.8°C  1021.5 hPa  76%  11.8 km/h   --  6.7km  56%  Partly Cloudy 
 17/01/2018 - 18:00  -8.0°C  -14.1°C  1020.8 hPa  79%  14.3 km/h   --  3.0km  69%  Foggy 
 17/01/2018 - 19:00  -9.1°C  -16.0°C  1020.1 hPa  82%  16.3 km/h   0.01 mm/h  0.7km  80%  Foggy 
 17/01/2018 - 20:00  -9.9°C  -17.1°C  1019.4 hPa  86%  17.1 km/h   0.01 mm/h  1.3km  84%  Foggy 
 17/01/2018 - 21:00  -10.1°C  -17.4°C  1018.7 hPa  88%  17.4 km/h   0.01 mm/h  3.2km  90%  Foggy 
 17/01/2018 - 22:00  -10.3°C  -17.7°C  1017.9 hPa  90%  17.7 km/h   0.01 mm/h  4.5km  94%  Overcast 
 17/01/2018 - 23:00  -10.1°C  -17.6°C  1017.1 hPa  90%  18.3 km/h   0.01 mm/h  4.4km  94%  Overcast 
 18/01/2018 - 00:00  -9.8°C  -17.4°C  1016.3 hPa  91%  19.0 km/h   --  3.8km  92%  Mostly Cloudy 
 18/01/2018 - 01:00  -9.5°C  -17.1°C  1015.5 hPa  91%  19.3 km/h   0.01 mm/h  3.6km  90%  Mostly Cloudy 
 18/01/2018 - 02:00  -9.3°C  -16.8°C  1014.7 hPa  91%  19.1 km/h   0.01 mm/h  4.6km  85%  Mostly Cloudy 
 18/01/2018 - 03:00  -9.0°C  -16.2°C  1014.0 hPa  89%  18.5 km/h   0.01 mm/h  6.0km  79%  Mostly Cloudy 
 18/01/2018 - 04:00  -8.5°C  -15.6°C  1013.4 hPa  87%  18.0 km/h   0.01 mm/h  6.5km  77%  Mostly Cloudy 
 18/01/2018 - 05:00  -8.2°C  -15.0°C  1013.1 hPa  86%  17.4 km/h   0.02 mm/h  4.7km  79%  Mostly Cloudy 
 18/01/2018 - 06:00  -8.1°C  -14.8°C  1012.9 hPa  86%  16.9 km/h   0.02 mm/h  1.9km  84%  Foggy 
 18/01/2018 - 07:00  -8.1°C  -14.8°C  1012.8 hPa  88%  16.8 km/h   0.02 mm/h  0.3km  89%  Foggy 
 18/01/2018 - 08:00  -7.9°C  -14.7°C  1012.8 hPa  89%  17.9 km/h   0.01 mm/h  0.8km  92%  Foggy 
 18/01/2018 - 09:00  -7.2°C  -14.2°C  1013.0 hPa  87%  19.5 km/h   --  2.4km  95%  Foggy 
 18/01/2018 - 10:00  -6.3°C  -13.2°C  1013.0 hPa  84%  20.6 km/h   --  5.5km  97%  Overcast 
 18/01/2018 - 11:00  -5.2°C  -12.0°C  1012.8 hPa  81%  20.9 km/h   --  11.2km  97%  Overcast 
 18/01/2018 - 12:00  -4.1°C  -10.5°C  1012.4 hPa  78%  20.7 km/h   --  16.1km  96%  Overcast 
 18/01/2018 - 13:00  -3.3°C  -9.4°C  1012.1 hPa  76%  20.1 km/h   0.01 mm/h  16.1km  92%  Mostly Cloudy 
 18/01/2018 - 14:00  -2.9°C  -8.8°C  1012.0 hPa  75%  18.9 km/h   0.01 mm/h  16.1km  83%  Mostly Cloudy 
 18/01/2018 - 15:00  -2.9°C  -8.4°C  1012.1 hPa  75%  17.3 km/h   0.01 mm/h  16.1km  72%  Mostly Cloudy 
 18/01/2018 - 16:00  -3.1°C  -8.4°C  1012.3 hPa  75%  16.0 km/h   0.01 mm/h  16.1km  67%  Mostly Cloudy 
 18/01/2018 - 17:00  -3.8°C  -9.2°C  1012.6 hPa  78%  15.6 km/h   0.01 mm/h  16.1km  74%  Mostly Cloudy 
 18/01/2018 - 18:00  -4.7°C  -10.3°C  1012.9 hPa  83%  15.7 km/h   --  7.8km  87%  Mostly Cloudy 
 18/01/2018 - 19:00  -5.7°C  -11.6°C  1013.3 hPa  87%  15.6 km/h   --  0.9km  97%  Foggy 
 18/01/2018 - 20:00  -6.6°C  -12.5°C  1013.6 hPa  90%  14.9 km/h   0.01 mm/h  0.5km  98%  Foggy 
 18/01/2018 - 21:00  -7.3°C  -13.1°C  1013.9 hPa  91%  14.1 km/h   0.01 mm/h  1.0km  97%  Foggy 
 18/01/2018 - 22:00  -7.7°C  -13.5°C  1014.1 hPa  91%  13.3 km/h   0.02 mm/h  2.3km  96%  Foggy 
 18/01/2018 - 23:00  -8.0°C  -13.6°C  1014.2 hPa  91%  12.6 km/h   0.01 mm/h  2.5km  97%  Foggy 
 19/01/2018 - 00:00  -8.2°C  -13.7°C  1014.2 hPa  92%  11.9 km/h   --  2.6km  99%  Foggy 
 19/01/2018 - 01:00  -8.5°C  -14.0°C  1014.2 hPa  94%  11.5 km/h   --  3.6km  99%  Overcast 
 19/01/2018 - 02:00  -8.7°C  -13.8°C  1014.1 hPa  93%  10.4 km/h   --  8.2km  96%  Overcast 
 19/01/2018 - 03:00  -8.6°C  -13.3°C  1014.0 hPa  90%  9.2 km/h   --  14.2km  91%  Mostly Cloudy 
 19/01/2018 - 04:00  -8.6°C  -12.9°C  1014.1 hPa  88%  8.2 km/h   --  16.1km  87%  Mostly Cloudy 
 19/01/2018 - 05:00  -8.7°C  -12.8°C  1014.5 hPa  87%  7.7 km/h   --  16.1km  86%  Mostly Cloudy 
 19/01/2018 - 06:00  -9.0°C  -13.1°C  1015.1 hPa  88%  7.6 km/h   0.01 mm/h  16.1km  85%  Mostly Cloudy 
 19/01/2018 - 07:00  -9.1°C  -13.3°C  1015.6 hPa  90%  7.7 km/h   0.01 mm/h  16.1km  81%  Mostly Cloudy 
 19/01/2018 - 08:00  -8.6°C  -12.7°C  1015.9 hPa  89%  7.9 km/h   0.01 mm/h  16.1km  71%  Mostly Cloudy 
Test

 

Past weather and reports

Past weatherFind in this section the past weather conditions, weather archive, graphics, reports and statistics.

Current conditions

Current weather condition for MontrealAll you need to know about the current weather conditions for Montreal. Weather data is updated every 10 minutes.

Weather forecast

Current Montreal weatherSince 2004, celinium.com website has provided accurate weather forecast for Montreal's island.